• Join FlightAware (Why Join?)
  • Login
  • US Flag 
03:34PM EDT


 

Airport Tracker/Info


-or-


 

Live Flight TrackerFlight Track Log ✈ UAL5915 ✈ 11-Apr-2013 ✈ KTUL - KIAD

Flight Track Log - Related Links

Times and Time Zones

All times are in EDT time to prevent confusion due to time zone crossing. See the UAL5915 flight status page for this flight to view local times or setup timezone preferences in your user account.

Time Position Orientation Groundspeed Altitude Reporting Facility
EDT Latitude Longitude Course Direction KTS MPH feet Rate Location/Type
02:50PM 36.1931 -95.9128 240° Southwest 167 192 1,400  Level Kansas City Center
02:52PM 36.1631 -95.9772 240° Southwest 227 261 4,500 2,340 Climbing Kansas City Center
02:53PM 36.0958 -95.9772 180° South 295 339 6,700 2,640 Climbing Kansas City Center
02:54PM 36.0689 -95.8825 109° East 324 373 9,500 2,100 Climbing Kansas City Center
02:55PM 36.0617 -95.7369 93° East 321 369 11,400 1,560 Climbing Kansas City Center
02:56PM 36.0544 -95.6181 94° East 395 455 12,900 1,740 Climbing Kansas City Center
02:57PM 36.0481 -95.4686 93° East 386 444 15,000 1,500 Climbing Kansas City Center
02:58PM 36.0394 -95.3281 94° East 406 467 16,200 1,380 Climbing Kansas City Center
02:59PM 36.0322 -95.1842 94° East 419 482 17,900 1,740 Climbing Kansas City Center
02:59PM 36.0267 -95.1025 95° East 413 475 19,000 1,920 Climbing Memphis Center
03:00PM 36.0236 -94.9611 91° East 413 475 20,800 1,800 Climbing Memphis Center
03:01PM 36.0247 -94.8175 89° East 413 475 22,600 1,080 Climbing Memphis Center
03:02PM 36.0808 -94.6997 59° Northeast 392 451 23,000 180 Climbing Memphis Center
03:03PM 36.0775 -94.5533 92° East 400 460 23,000 300 Level Memphis Center
03:04PM 36.0450 -94.4053 105° East 413 475 23,700 960 Climbing Memphis Center
03:05PM 36.0478 -94.2489 89° East 443 510 25,000 600 Climbing Memphis Center
03:06PM 36.0633 -94.0878 83° East 454 522 25,000  Level Memphis Center
03:07PM 36.0661 -93.9183 89° East 474 545 25,000 600 Level Memphis Center
03:08PM 36.0728 -93.7519 87° East 474 545 26,200 1,320 Climbing Memphis Center
03:09PM 36.0792 -93.5928 87° East 474 545 27,700 1,500 Climbing Memphis Center
03:10PM 36.0853 -93.4389 87° East 464 534 29,200 1,500 Climbing Memphis Center
03:11PM 36.0908 -93.2878 87° East 444 511 30,700 1,500 Climbing Memphis Center
03:12PM 36.0964 -93.1389 87° East 439 505 32,300 1,380 Climbing Memphis Center
03:13PM 36.0997 -92.9900 88° East 439 505 33,500 1,140 Climbing Memphis Center
03:14PM 36.1047 -92.8436 88° East 432 497 34,600 720 Climbing Memphis Center
03:15PM 36.1117 -92.6950 87° East 432 497 35,000 540 Climbing Memphis Center
03:16PM 36.1147 -92.5383 89° East 442 509 35,700 900 Climbing Memphis Center
03:17PM 36.1192 -92.3869 88° East 442 509 36,900 600 Climbing Memphis Center
03:18PM 36.0964 -92.2450 101° East 428 493 37,000  Climbing Memphis Center
03:19PM 36.0611 -92.0978 106° East 428 493 37,000  Level Memphis Center
03:20PM 36.0044 -91.9683 118° Southeast 435 501 37,000  Level Memphis Center
03:21PM 35.9433 -91.8492 122° Southeast 425 489 37,000  Level Memphis Center
03:22PM 35.8969 -91.7047 112° Southeast 420 483 37,000  Level Memphis Center
03:23PM 35.9069 -91.5461 86° East 425 489 37,000  Level Memphis Center
03:24PM 35.9125 -91.4028 87° East 442 509 37,000  Level Memphis Center
03:25PM 35.9242 -91.2439 85° East 454 522 37,000  Level Memphis Center
03:26PM 35.9356 -91.0878 85° East 454 522 37,000  Level Memphis Center
03:27PM 35.9447 -90.9364 86° East 454 522 37,000  Level Memphis Center
03:28PM 35.9536 -90.7775 86° East 454 522 37,000  Level Memphis Center
03:29PM 35.9644 -90.6236 85° East 454 522 37,000  Level Memphis Center
03:30PM 35.9731 -90.4697 86° East 454 522 37,000  Level Memphis Center
03:31PM 36.0231 -90.3236 67° East 454 522 37,000  Level Memphis Center
03:32PM 36.1167 -90.2028 46° Northeast 454 522 37,000  Level Memphis Center
03:33PM 36.2083 -90.0817 47° Northeast 471 542 37,000  Level Memphis Center
03:34PM 36.3058 -89.9553 46° Northeast 484 557 37,000  Level Memphis Center
03:35PM 36.4033 -89.8283 46° Northeast 501 577 37,000  Level Memphis Center
03:36PM 36.5092 -89.6933 46° Northeast 501 577 37,000  Level Memphis Center
03:37PM 36.6083 -89.5633 46° Northeast 501 577 37,000  Level Memphis Center
03:38PM 36.7094 -89.4303 47° Northeast 506 582 37,000  Level Memphis Center
03:39PM 36.8086 -89.2969 47° Northeast 511 588 37,000  Level Memphis Center
03:40PM 36.9094 -89.1633 47° Northeast 516 594 37,000  Level Memphis Center
03:41PM 37.0081 -89.0294 47° Northeast 516 594 37,000  Level Memphis Center
03:42PM 37.1067 -88.9003 46° Northeast 521 600 37,000  Level Memphis Center
03:43PM 37.2069 -88.7631 47° Northeast 521 600 37,000  Level Memphis Center
03:44PM 37.3053 -88.6308 47° Northeast 521 600 37,000  Level Memphis Center
03:46PM 37.4544 -88.4197 48° Northeast 519 597 37,000  Level Indianapolis Center
03:47PM 37.5611 -88.2711 48° Northeast 516 594 37,000  Level Indianapolis Center
03:48PM 37.6503 -88.1497 47° Northeast 514 592 37,000  Level Indianapolis Center
03:49PM 37.7644 -87.9903 48° Northeast 516 594 37,000  Level Indianapolis Center
03:50PM 37.8547 -87.8647 48° Northeast 523 602 37,000  Level Indianapolis Center
03:51PM 37.9297 -87.7097 58° Northeast 517 595 37,000  Level Indianapolis Center
03:52PM 37.9478 -87.5394 82° East 493 567 37,000  Level Indianapolis Center
03:53PM 37.9658 -87.3339 84° East 491 565 37,000  Level Indianapolis Center
03:54PM 37.9800 -87.1628 84° East 494 568 37,000  Level Indianapolis Center
03:55PM 37.9950 -86.9906 84° East 495 570 37,000  Level Indianapolis Center
03:56PM 38.0083 -86.8164 84° East 499 574 37,000  Level Indianapolis Center
03:58PM 38.0233 -86.6406 84° East 504 580 37,000  Level Indianapolis Center
03:59PM 38.0397 -86.4278 84° East 506 582 37,000  Level Indianapolis Center
04:00PM 38.0542 -86.2503 84° East 507 583 37,000  Level Indianapolis Center
04:01PM 38.0711 -86.0367 84° East 508 585 37,000  Level Indianapolis Center
04:02PM 38.0833 -85.8611 85° East 501 577 37,000  Level Indianapolis Center
04:03PM 38.0956 -85.6867 85° East 497 572 37,000  Level Indianapolis Center
04:04PM 38.1097 -85.5119 84° East 498 573 37,000  Level Indianapolis Center
04:05PM 38.1250 -85.3139 84° East 473 544 37,000  Level Indianapolis Center
04:06PM 38.1378 -85.1592 84° East 470 541 37,000  Level Indianapolis Center
04:07PM 38.1508 -84.9917 84° East 475 547 37,000  Level Indianapolis Center
04:08PM 38.1628 -84.8219 85° East 479 551 37,000  Level Indianapolis Center
04:09PM 38.1781 -84.6194 84° East 487 560 37,000  Level Indianapolis Center
04:10PM 38.1894 -84.4508 85° East 480 552 37,000  Level Indianapolis Center
04:11PM 38.2019 -84.2772 85° East 488 562 37,000  Level Indianapolis Center
04:12PM 38.2144 -84.1022 85° East 494 568 37,000  Level Indianapolis Center
04:13PM 38.2261 -83.9250 85° East 502 578 37,000  Level Indianapolis Center
04:14PM 38.2394 -83.7186 85° East 500 575 37,000  Level Indianapolis Center
04:15PM 38.2506 -83.5506 85° East 482 555 37,000  Level Indianapolis Center
04:16PM 38.2608 -83.3825 85° East 475 547 37,000  Level Indianapolis Center
04:17PM 38.2717 -83.2136 85° East 478 550 37,000  Level Indianapolis Center
04:18PM 38.2817 -83.0411 86° East 485 558 37,000  Level Indianapolis Center
04:19PM 38.2919 -82.8667 86° East 492 566 37,000  Level Indianapolis Center
04:20PM 38.3033 -82.6628 86° East 494 568 37,000  Level Indianapolis Center
04:21PM 38.3033 -82.4858 90° East 498 573 37,000  Level Indianapolis Center
04:23PM 38.2922 -82.3153 95° East 487 560 37,000  Level Indianapolis Center
04:24PM 38.2814 -82.1478 95° East 479 551 37,000  Level Indianapolis Center
04:25PM 38.2725 -81.9808 94° East 477 549 37,000  Level Indianapolis Center
04:26PM 38.2781 -81.8119 88° East 484 557 37,000  Level Indianapolis Center
04:27PM 38.2853 -81.6083 87° East 486 559 37,000  Level Indianapolis Center
04:28PM 38.2917 -81.4372 87° East 490 564 37,000  Level Indianapolis Center
04:30PM 38.3031 -81.1061 87° East 472 543 37,000  Level Washington Center
04:31PM 38.3117 -80.9161 87° East 481 554 37,000  Level Washington Center
04:32PM 38.3125 -80.7494 90° East 475 547 37,000  Level Washington Center
04:33PM 38.3092 -80.5878 91° East 470 541 37,000  Level Washington Center
04:34PM 38.3119 -80.4186 89° East 470 541 37,000  Level Washington Center
04:35PM 38.3386 -80.2719 77° East 470 541 37,000 -300 Level Washington Center
04:36PM 38.3700 -80.1044 77° East 475 547 36,400 -1,560 Descending Washington Center
04:37PM 38.4075 -79.9344 74° East 487 560 33,900 -2,340 Descending Washington Center
04:38PM 38.4486 -79.7725 72° East 487 560 31,800 -2,460 Descending Washington Center
04:39PM 38.4881 -79.5944 74° East 475 547 29,000 -3,660 Descending Washington Center
04:40PM 38.5247 -79.4344 74° East 468 539 24,500 -2,520 Descending Washington Center
04:41PM 38.5525 -79.2819 77° East 463 533 24,000 -720 Descending Washington Center
04:42PM 38.5822 -79.1214 77° East 458 527 23,100 -1,740 Descending Washington Center
04:43PM 38.6139 -78.9661 75° East 451 519 20,600 -2,400 Descending Washington Center
04:44PM 38.6403 -78.8397 75° East 436 502 18,300 -2,460 Descending Washington Center
04:45PM 38.6694 -78.6842 76° East 410 472 15,700 -2,400 Descending Washington Center
04:46PM 38.6933 -78.5628 76° East 394 453 13,600 -2,100 Descending Washington Center
04:47PM 38.7217 -78.4281 75° East 369 425 11,500 -1,620 Descending Washington Center
04:48PM 38.7656 -78.3286 60° Northeast 330 380 10,400 -1,320 Descending Washington Center
04:49PM 38.8378 -78.2700 32° Northeast 296 341 8,900 -1,560 Descending Washington Center
04:50PM 38.9078 -78.2192 29° Northeast 288 331 7,300 -1,500 Descending Washington Center
04:51PM 38.9756 -78.1656 32° Northeast 283 326 5,900 -1,200 Descending Washington Center
04:52PM 39.0431 -78.1200 28° Northeast 277 319 5,000 -480 Descending Washington Center
04:53PM 39.1131 -78.0714 28° Northeast 271 312 5,000  Level Washington Center
04:54PM 39.1806 -78.0283 26° Northeast 271 312 5,000  Level Washington Center
04:55PM 39.2297 -77.9628 46° Northeast 265 305 5,000  Level Washington Center
04:57PM 39.2667 -77.7667 76° East 230 265 5,000  Level Potomac TRACON
04:58PM 39.2667 -77.6833 90° East 230 265 5,000  Level Potomac TRACON
04:59PM 39.2667 -77.6000 90° East 229 264 5,000 -120 Level Potomac TRACON
05:00PM 39.2500 -77.5333 108° East 224 258 4,800 -540 Descending Potomac TRACON
05:01PM 39.2167 -77.4833 131° Southeast 226 260 4,000 -720 Descending Potomac TRACON
05:02PM 39.1500 -77.4500 159° South 220 253 3,500 -720 Descending Potomac TRACON
05:03PM 39.1000 -77.4500 180° South 221 254 2,600 -1,020 Descending Potomac TRACON
05:04PM 39.0333 -77.4500 180° South 184 212 1,500 -960 Descending Potomac TRACON
05:05PM 38.9833 -77.4667 195° South 144 166 700 -840 Descending Potomac TRACON